Terminal Aerodrome Forecast
Issued by NWS

Home | Current Version | Previous Version | Text Only | Print | Product List | Glossary On
Versions: 1 2 3 4 5 6 7 8 9 10 11 12 13 14
000
FTUS42 KMLB 060538
TAFSFB
TAF
KSFB 060538Z 0606/0706 02007KT P6SM FEW015 BKN120 OVC200
     FM061300 01010KT P6SM VCSH SCT015 BKN035 BKN120
     FM061800 03012G20KT P6SM SCT025 BKN100 BKN250
     FM070000 36007KT P6SM FEW020 SCT100 SCT250=

USA.gov is the U.S. government's official web portal to all federal, state and local government web resources and services.